Chilliwack, Canada
Current Conditions -  °F | °C
As of 8:00 PM on Tuesday 27 Jan 2015 (Local Time) from CYXX Reporting Station
Broken Clouds Broken Clouds  
Wind Chill: 41°   Ceiling: 3000
Heat Index: 46°   Visibility: 10mi
Dew Point: 46°   Wind: 10mph
Humidity: 100%   Direction: 220°SW
Pressure: 30.18"   Gusts: NA
Location:  49.16°N, 121.95°W
Report Text: CYXX 280400Z 22009KT 10SM BKN030 08/08 A3018 RMK CU6 SLP221
Loading
Personal Weather Stations






























Interactive Weather Map New forecast layout! Learn more

10-Day Weather Forecast

Advertisements
Track Severe Weather on mobile